sensor_id;sensor_type;location;lat;lon;timestamp;P1;durP1;ratioP1;P2;durP2;ratioP2
71395;SDS011;59888;55.814;37.132;2022-08-21T00:00:16;24.33;;;15.60;;
71395;SDS011;59888;55.814;37.132;2022-08-21T00:02:47;20.00;;;13.35;;
71395;SDS011;59888;55.814;37.132;2022-08-21T00:05:19;27.40;;;15.88;;
71395;SDS011;59888;55.814;37.132;2022-08-21T00:07:45;21.85;;;13.65;;
71395;SDS011;59888;55.814;37.132;2022-08-21T00:10:11;26.30;;;15.63;;
71395;SDS011;59888;55.814;37.132;2022-08-21T00:12:38;20.65;;;13.57;;
71395;SDS011;59888;55.814;37.132;2022-08-21T00:15:06;25.38;;;14.73;;
71395;SDS011;59888;55.814;37.132;2022-08-21T00:17:33;20.25;;;14.13;;
71395;SDS011;59888;55.814;37.132;2022-08-21T00:19:59;20.35;;;13.55;;
71395;SDS011;59888;55.814;37.132;2022-08-21T00:22:25;22.13;;;14.70;;
71395;SDS011;59888;55.814;37.132;2022-08-21T00:24:51;29.88;;;17.58;;
71395;SDS011;59888;55.814;37.132;2022-08-21T00:27:17;27.42;;;16.58;;
71395;SDS011;59888;55.814;37.132;2022-08-21T00:29:43;26.95;;;16.30;;
71395;SDS011;59888;55.814;37.132;2022-08-21T00:32:08;24.88;;;16.05;;
71395;SDS011;59888;55.814;37.132;2022-08-21T00:34:34;21.80;;;15.23;;
71395;SDS011;59888;55.814;37.132;2022-08-21T00:37:00;29.05;;;17.40;;
71395;SDS011;59888;55.814;37.132;2022-08-21T00:39:26;20.50;;;14.20;;
71395;SDS011;59888;55.814;37.132;2022-08-21T00:41:52;25.52;;;16.85;;
71395;SDS011;59888;55.814;37.132;2022-08-21T00:44:18;26.35;;;15.90;;
71395;SDS011;59888;55.814;37.132;2022-08-21T00:46:43;25.63;;;16.75;;
71395;SDS011;59888;55.814;37.132;2022-08-21T00:49:10;29.25;;;17.02;;
71395;SDS011;59888;55.814;37.132;2022-08-21T00:51:45;24.73;;;16.17;;
71395;SDS011;59888;55.814;37.132;2022-08-21T00:54:15;37.50;;;19.80;;
71395;SDS011;59888;55.814;37.132;2022-08-21T00:56:43;33.88;;;19.80;;
71395;SDS011;59888;55.814;37.132;2022-08-21T00:59:09;30.25;;;19.25;;
71395;SDS011;59888;55.814;37.132;2022-08-21T01:01:35;27.58;;;18.10;;
71395;SDS011;59888;55.814;37.132;2022-08-21T01:04:02;32.03;;;22.00;;
71395;SDS011;59888;55.814;37.132;2022-08-21T01:06:28;31.92;;;20.02;;
71395;SDS011;59888;55.814;37.132;2022-08-21T01:08:54;33.28;;;20.60;;
71395;SDS011;59888;55.814;37.132;2022-08-21T01:11:20;30.92;;;21.13;;
71395;SDS011;59888;55.814;37.132;2022-08-21T01:13:46;30.65;;;19.67;;
71395;SDS011;59888;55.814;37.132;2022-08-21T01:16:14;29.15;;;18.85;;
71395;SDS011;59888;55.814;37.132;2022-08-21T01:18:43;37.25;;;23.35;;
71395;SDS011;59888;55.814;37.132;2022-08-21T01:21:11;35.40;;;21.77;;
71395;SDS011;59888;55.814;37.132;2022-08-21T01:23:41;37.33;;;21.80;;
71395;SDS011;59888;55.814;37.132;2022-08-21T01:26:09;44.45;;;26.17;;
71395;SDS011;59888;55.814;37.132;2022-08-21T01:28:37;34.75;;;21.27;;
71395;SDS011;59888;55.814;37.132;2022-08-21T01:31:07;46.97;;;26.67;;
71395;SDS011;59888;55.814;37.132;2022-08-21T01:33:35;39.72;;;23.25;;
71395;SDS011;59888;55.814;37.132;2022-08-21T01:36:02;38.97;;;23.80;;
71395;SDS011;59888;55.814;37.132;2022-08-21T01:38:28;38.33;;;24.40;;
71395;SDS011;59888;55.814;37.132;2022-08-21T01:40:54;39.00;;;23.42;;
71395;SDS011;59888;55.814;37.132;2022-08-21T01:43:20;39.08;;;24.40;;
71395;SDS011;59888;55.814;37.132;2022-08-21T01:45:46;41.65;;;24.83;;
71395;SDS011;59888;55.814;37.132;2022-08-21T01:48:12;36.97;;;22.80;;
71395;SDS011;59888;55.814;37.132;2022-08-21T01:50:38;40.70;;;24.35;;
71395;SDS011;59888;55.814;37.132;2022-08-21T01:53:03;38.72;;;22.73;;
71395;SDS011;59888;55.814;37.132;2022-08-21T01:55:29;40.00;;;25.58;;
71395;SDS011;59888;55.814;37.132;2022-08-21T01:57:56;36.35;;;23.70;;
71395;SDS011;59888;55.814;37.132;2022-08-21T02:00:23;33.08;;;20.83;;
71395;SDS011;59888;55.814;37.132;2022-08-21T02:02:49;37.67;;;24.05;;
71395;SDS011;59888;55.814;37.132;2022-08-21T02:05:15;39.25;;;24.73;;
71395;SDS011;59888;55.814;37.132;2022-08-21T02:07:43;37.70;;;23.58;;
71395;SDS011;59888;55.814;37.132;2022-08-21T02:10:12;38.85;;;24.85;;
71395;SDS011;59888;55.814;37.132;2022-08-21T02:12:51;38.55;;;24.35;;
71395;SDS011;59888;55.814;37.132;2022-08-21T02:15:17;39.00;;;23.90;;
71395;SDS011;59888;55.814;37.132;2022-08-21T02:17:45;38.15;;;26.88;;
71395;SDS011;59888;55.814;37.132;2022-08-21T02:20:18;37.90;;;25.77;;
71395;SDS011;59888;55.814;37.132;2022-08-21T02:22:46;46.42;;;28.67;;
71395;SDS011;59888;55.814;37.132;2022-08-21T02:25:12;43.78;;;27.98;;
71395;SDS011;59888;55.814;37.132;2022-08-21T02:27:42;41.30;;;25.50;;
71395;SDS011;59888;55.814;37.132;2022-08-21T02:30:12;40.65;;;27.13;;
71395;SDS011;59888;55.814;37.132;2022-08-21T02:32:40;38.53;;;24.15;;
71395;SDS011;59888;55.814;37.132;2022-08-21T02:35:07;44.20;;;26.45;;
71395;SDS011;59888;55.814;37.132;2022-08-21T02:37:42;37.53;;;24.58;;
71395;SDS011;59888;55.814;37.132;2022-08-21T02:40:20;41.88;;;25.48;;
71395;SDS011;59888;55.814;37.132;2022-08-21T02:42:48;43.92;;;26.73;;
71395;SDS011;59888;55.814;37.132;2022-08-21T02:45:15;37.53;;;24.35;;
71395;SDS011;59888;55.814;37.132;2022-08-21T02:47:56;42.03;;;25.55;;
71395;SDS011;59888;55.814;37.132;2022-08-21T02:50:28;42.10;;;27.38;;
71395;SDS011;59888;55.814;37.132;2022-08-21T02:52:56;37.42;;;23.85;;
71395;SDS011;59888;55.814;37.132;2022-08-21T02:55:23;43.15;;;26.10;;
71395;SDS011;59888;55.814;37.132;2022-08-21T02:57:55;34.42;;;23.10;;
71395;SDS011;59888;55.814;37.132;2022-08-21T03:00:23;38.33;;;24.20;;
71395;SDS011;59888;55.814;37.132;2022-08-21T03:02:51;36.38;;;22.83;;
71395;SDS011;59888;55.814;37.132;2022-08-21T03:05:18;34.28;;;23.17;;
71395;SDS011;59888;55.814;37.132;2022-08-21T03:07:45;34.30;;;23.58;;
71395;SDS011;59888;55.814;37.132;2022-08-21T03:10:12;38.78;;;24.40;;
71395;SDS011;59888;55.814;37.132;2022-08-21T03:12:39;39.33;;;22.77;;
71395;SDS011;59888;55.814;37.132;2022-08-21T03:15:08;36.38;;;23.42;;
71395;SDS011;59888;55.814;37.132;2022-08-21T03:17:36;39.83;;;23.80;;
71395;SDS011;59888;55.814;37.132;2022-08-21T03:20:06;35.78;;;22.65;;
71395;SDS011;59888;55.814;37.132;2022-08-21T03:22:33;37.63;;;23.65;;
71395;SDS011;59888;55.814;37.132;2022-08-21T03:24:59;34.67;;;21.08;;
71395;SDS011;59888;55.814;37.132;2022-08-21T03:27:25;36.28;;;21.40;;
71395;SDS011;59888;55.814;37.132;2022-08-21T03:29:53;37.42;;;23.58;;
71395;SDS011;59888;55.814;37.132;2022-08-21T03:32:19;34.58;;;22.60;;
71395;SDS011;59888;55.814;37.132;2022-08-21T03:34:45;33.67;;;21.95;;
71395;SDS011;59888;55.814;37.132;2022-08-21T03:37:12;35.30;;;22.23;;
71395;SDS011;59888;55.814;37.132;2022-08-21T03:39:38;35.40;;;21.52;;
71395;SDS011;59888;55.814;37.132;2022-08-21T03:42:05;36.05;;;20.80;;
71395;SDS011;59888;55.814;37.132;2022-08-21T03:44:31;39.42;;;22.42;;
71395;SDS011;59888;55.814;37.132;2022-08-21T03:46:57;35.35;;;22.05;;
71395;SDS011;59888;55.814;37.132;2022-08-21T03:49:24;34.83;;;20.35;;
71395;SDS011;59888;55.814;37.132;2022-08-21T03:51:50;32.97;;;20.67;;
71395;SDS011;59888;55.814;37.132;2022-08-21T03:54:16;34.13;;;20.25;;
71395;SDS011;59888;55.814;37.132;2022-08-21T03:56:42;33.90;;;20.20;;
71395;SDS011;59888;55.814;37.132;2022-08-21T03:59:08;36.40;;;20.67;;
71395;SDS011;59888;55.814;37.132;2022-08-21T04:01:34;33.13;;;19.63;;
71395;SDS011;59888;55.814;37.132;2022-08-21T04:04:01;32.53;;;20.17;;
71395;SDS011;59888;55.814;37.132;2022-08-21T04:06:28;31.92;;;20.27;;
71395;SDS011;59888;55.814;37.132;2022-08-21T04:08:54;33.20;;;21.40;;
71395;SDS011;59888;55.814;37.132;2022-08-21T04:11:20;32.75;;;19.80;;
71395;SDS011;59888;55.814;37.132;2022-08-21T04:13:46;33.10;;;20.42;;
71395;SDS011;59888;55.814;37.132;2022-08-21T04:16:13;31.77;;;19.77;;
71395;SDS011;59888;55.814;37.132;2022-08-21T04:18:39;33.42;;;19.83;;
71395;SDS011;59888;55.814;37.132;2022-08-21T04:21:06;32.47;;;18.75;;
71395;SDS011;59888;55.814;37.132;2022-08-21T04:23:35;28.70;;;18.77;;
71395;SDS011;59888;55.814;37.132;2022-08-21T04:26:02;28.42;;;18.42;;
71395;SDS011;59888;55.814;37.132;2022-08-21T04:28:28;32.42;;;19.30;;
71395;SDS011;59888;55.814;37.132;2022-08-21T04:30:54;37.88;;;19.73;;
71395;SDS011;59888;55.814;37.132;2022-08-21T04:33:21;28.42;;;18.45;;
71395;SDS011;59888;55.814;37.132;2022-08-21T04:35:47;27.60;;;17.95;;
71395;SDS011;59888;55.814;37.132;2022-08-21T04:38:14;28.60;;;17.67;;
71395;SDS011;59888;55.814;37.132;2022-08-21T04:40:40;26.60;;;17.83;;
71395;SDS011;59888;55.814;37.132;2022-08-21T04:43:07;30.45;;;18.10;;
71395;SDS011;59888;55.814;37.132;2022-08-21T04:45:35;33.60;;;18.52;;
71395;SDS011;59888;55.814;37.132;2022-08-21T04:48:05;30.77;;;18.05;;
71395;SDS011;59888;55.814;37.132;2022-08-21T04:50:41;27.92;;;17.33;;
71395;SDS011;59888;55.814;37.132;2022-08-21T04:53:32;27.60;;;17.10;;
71395;SDS011;59888;55.814;37.132;2022-08-21T04:56:06;24.25;;;16.58;;
71395;SDS011;59888;55.814;37.132;2022-08-21T05:01:03;28.73;;;17.02;;
71395;SDS011;59888;55.814;37.132;2022-08-21T05:03:32;27.05;;;16.70;;
71395;SDS011;59888;55.814;37.132;2022-08-21T05:05:59;27.30;;;16.83;;
71395;SDS011;59888;55.814;37.132;2022-08-21T05:08:26;27.10;;;17.23;;
71395;SDS011;59888;55.814;37.132;2022-08-21T05:10:53;25.10;;;17.10;;
71395;SDS011;59888;55.814;37.132;2022-08-21T05:13:19;27.40;;;17.27;;
71395;SDS011;59888;55.814;37.132;2022-08-21T05:15:45;26.45;;;16.33;;
71395;SDS011;59888;55.814;37.132;2022-08-21T05:18:12;28.45;;;16.17;;
71395;SDS011;59888;55.814;37.132;2022-08-21T05:20:37;26.85;;;16.95;;
71395;SDS011;59888;55.814;37.132;2022-08-21T05:23:11;26.80;;;16.38;;
71395;SDS011;59888;55.814;37.132;2022-08-21T05:25:38;25.75;;;15.68;;
71395;SDS011;59888;55.814;37.132;2022-08-21T05:28:05;24.40;;;15.77;;
71395;SDS011;59888;55.814;37.132;2022-08-21T05:30:31;23.00;;;16.08;;
71395;SDS011;59888;55.814;37.132;2022-08-21T05:32:58;23.63;;;16.40;;
71395;SDS011;59888;55.814;37.132;2022-08-21T05:35:26;25.95;;;16.20;;
71395;SDS011;59888;55.814;37.132;2022-08-21T05:37:52;25.20;;;16.58;;
71395;SDS011;59888;55.814;37.132;2022-08-21T05:40:18;25.20;;;17.02;;
71395;SDS011;59888;55.814;37.132;2022-08-21T05:42:44;24.27;;;16.38;;
71395;SDS011;59888;55.814;37.132;2022-08-21T05:45:10;24.05;;;15.80;;
71395;SDS011;59888;55.814;37.132;2022-08-21T05:47:36;24.52;;;15.93;;
71395;SDS011;59888;55.814;37.132;2022-08-21T05:50:03;28.33;;;16.50;;
71395;SDS011;59888;55.814;37.132;2022-08-21T05:52:29;23.80;;;15.65;;
71395;SDS011;59888;55.814;37.132;2022-08-21T05:54:55;30.13;;;16.23;;
71395;SDS011;59888;55.814;37.132;2022-08-21T05:57:21;23.90;;;16.10;;
71395;SDS011;59888;55.814;37.132;2022-08-21T05:59:49;24.75;;;15.38;;
71395;SDS011;59888;55.814;37.132;2022-08-21T06:02:17;24.95;;;16.13;;
71395;SDS011;59888;55.814;37.132;2022-08-21T06:04:44;26.98;;;16.67;;
71395;SDS011;59888;55.814;37.132;2022-08-21T06:07:10;24.52;;;16.20;;
71395;SDS011;59888;55.814;37.132;2022-08-21T06:09:36;24.02;;;15.55;;
71395;SDS011;59888;55.814;37.132;2022-08-21T06:12:06;22.58;;;14.80;;
71395;SDS011;59888;55.814;37.132;2022-08-21T06:14:35;24.45;;;14.95;;
71395;SDS011;59888;55.814;37.132;2022-08-21T06:17:02;22.67;;;14.82;;
71395;SDS011;59888;55.814;37.132;2022-08-21T06:19:32;25.67;;;15.52;;
71395;SDS011;59888;55.814;37.132;2022-08-21T06:21:58;25.00;;;15.52;;
71395;SDS011;59888;55.814;37.132;2022-08-21T06:24:24;23.60;;;14.38;;
71395;SDS011;59888;55.814;37.132;2022-08-21T06:26:51;20.33;;;13.80;;
71395;SDS011;59888;55.814;37.132;2022-08-21T06:29:17;23.88;;;14.52;;
71395;SDS011;59888;55.814;37.132;2022-08-21T06:31:45;25.00;;;15.77;;
71395;SDS011;59888;55.814;37.132;2022-08-21T06:34:12;29.75;;;16.80;;
71395;SDS011;59888;55.814;37.132;2022-08-21T06:36:39;22.15;;;14.93;;
71395;SDS011;59888;55.814;37.132;2022-08-21T06:39:05;26.45;;;16.50;;
71395;SDS011;59888;55.814;37.132;2022-08-21T06:41:31;23.40;;;14.70;;
71395;SDS011;59888;55.814;37.132;2022-08-21T06:43:57;20.75;;;13.85;;
71395;SDS011;59888;55.814;37.132;2022-08-21T06:46:23;23.35;;;14.88;;
71395;SDS011;59888;55.814;37.132;2022-08-21T06:48:51;26.48;;;15.88;;
71395;SDS011;59888;55.814;37.132;2022-08-21T06:51:17;25.73;;;14.30;;
71395;SDS011;59888;55.814;37.132;2022-08-21T06:53:43;25.13;;;15.38;;
71395;SDS011;59888;55.814;37.132;2022-08-21T06:56:09;27.88;;;16.70;;
71395;SDS011;59888;55.814;37.132;2022-08-21T06:58:34;23.65;;;15.43;;
71395;SDS011;59888;55.814;37.132;2022-08-21T07:01:00;22.48;;;15.18;;
71395;SDS011;59888;55.814;37.132;2022-08-21T07:03:32;23.95;;;15.57;;
71395;SDS011;59888;55.814;37.132;2022-08-21T07:05:59;25.40;;;15.00;;
71395;SDS011;59888;55.814;37.132;2022-08-21T07:08:26;24.48;;;15.50;;
71395;SDS011;59888;55.814;37.132;2022-08-21T07:10:53;24.88;;;14.95;;
71395;SDS011;59888;55.814;37.132;2022-08-21T07:13:22;24.35;;;14.85;;
71395;SDS011;59888;55.814;37.132;2022-08-21T07:15:49;20.65;;;14.35;;
71395;SDS011;59888;55.814;37.132;2022-08-21T07:18:18;27.13;;;14.80;;
71395;SDS011;59888;55.814;37.132;2022-08-21T07:20:44;23.17;;;14.77;;
71395;SDS011;59888;55.814;37.132;2022-08-21T07:23:13;25.50;;;14.18;;
71395;SDS011;59888;55.814;37.132;2022-08-21T07:25:49;22.25;;;14.77;;
71395;SDS011;59888;55.814;37.132;2022-08-21T07:28:15;27.77;;;14.65;;
71395;SDS011;59888;55.814;37.132;2022-08-21T07:30:40;27.48;;;15.23;;
71395;SDS011;59888;55.814;37.132;2022-08-21T07:33:06;25.15;;;14.70;;
71395;SDS011;59888;55.814;37.132;2022-08-21T07:35:32;20.45;;;13.68;;
71395;SDS011;59888;55.814;37.132;2022-08-21T07:37:58;24.80;;;14.38;;
71395;SDS011;59888;55.814;37.132;2022-08-21T07:40:24;25.10;;;14.43;;
71395;SDS011;59888;55.814;37.132;2022-08-21T07:42:50;19.13;;;13.23;;
71395;SDS011;59888;55.814;37.132;2022-08-21T07:45:20;23.40;;;14.77;;
71395;SDS011;59888;55.814;37.132;2022-08-21T07:47:48;30.15;;;13.60;;
71395;SDS011;59888;55.814;37.132;2022-08-21T07:50:14;22.95;;;13.35;;
71395;SDS011;59888;55.814;37.132;2022-08-21T07:52:42;22.90;;;13.38;;
71395;SDS011;59888;55.814;37.132;2022-08-21T07:55:10;23.65;;;13.60;;
71395;SDS011;59888;55.814;37.132;2022-08-21T07:57:38;21.52;;;13.30;;
71395;SDS011;59888;55.814;37.132;2022-08-21T08:00:06;24.02;;;13.23;;
71395;SDS011;59888;55.814;37.132;2022-08-21T08:02:40;22.88;;;13.18;;
71395;SDS011;59888;55.814;37.132;2022-08-21T08:05:07;25.13;;;14.02;;
71395;SDS011;59888;55.814;37.132;2022-08-21T08:07:35;25.35;;;14.15;;
71395;SDS011;59888;55.814;37.132;2022-08-21T08:10:02;24.05;;;13.82;;
71395;SDS011;59888;55.814;37.132;2022-08-21T08:12:29;25.95;;;12.30;;
71395;SDS011;59888;55.814;37.132;2022-08-21T08:14:56;19.70;;;12.65;;
71395;SDS011;59888;55.814;37.132;2022-08-21T08:17:23;22.90;;;12.98;;
71395;SDS011;59888;55.814;37.132;2022-08-21T08:19:49;23.92;;;13.75;;
71395;SDS011;59888;55.814;37.132;2022-08-21T08:22:16;20.83;;;12.93;;
71395;SDS011;59888;55.814;37.132;2022-08-21T08:24:49;25.38;;;14.10;;
71395;SDS011;59888;55.814;37.132;2022-08-21T08:27:19;23.45;;;13.32;;
71395;SDS011;59888;55.814;37.132;2022-08-21T08:29:45;22.77;;;13.13;;
71395;SDS011;59888;55.814;37.132;2022-08-21T08:32:12;29.10;;;14.75;;
71395;SDS011;59888;55.814;37.132;2022-08-21T08:34:39;24.13;;;13.48;;
71395;SDS011;59888;55.814;37.132;2022-08-21T08:37:06;22.73;;;13.95;;
71395;SDS011;59888;55.814;37.132;2022-08-21T08:39:32;22.17;;;13.73;;
71395;SDS011;59888;55.814;37.132;2022-08-21T08:42:00;22.92;;;13.50;;
71395;SDS011;59888;55.814;37.132;2022-08-21T08:44:31;19.33;;;13.52;;
71395;SDS011;59888;55.814;37.132;2022-08-21T08:46:57;20.30;;;13.23;;
71395;SDS011;59888;55.814;37.132;2022-08-21T08:54:34;25.15;;;14.00;;
71395;SDS011;59888;55.814;37.132;2022-08-21T08:57:17;21.75;;;13.30;;
71395;SDS011;59888;55.814;37.132;2022-08-21T08:59:49;24.75;;;13.98;;
71395;SDS011;59888;55.814;37.132;2022-08-21T09:02:17;22.38;;;14.25;;
71395;SDS011;59888;55.814;37.132;2022-08-21T09:04:45;21.10;;;14.45;;
71395;SDS011;59888;55.814;37.132;2022-08-21T09:10:05;24.38;;;14.25;;
71395;SDS011;59888;55.814;37.132;2022-08-21T09:12:50;26.77;;;14.93;;
71395;SDS011;59888;55.814;37.132;2022-08-21T09:23:34;26.33;;;15.48;;
71395;SDS011;59888;55.814;37.132;2022-08-21T09:28:43;30.15;;;16.30;;
71395;SDS011;59888;55.814;37.132;2022-08-21T09:31:15;23.90;;;15.10;;
71395;SDS011;59888;55.814;37.132;2022-08-21T09:33:46;28.00;;;14.70;;
71395;SDS011;59888;55.814;37.132;2022-08-21T09:36:12;25.13;;;14.77;;
71395;SDS011;59888;55.814;37.132;2022-08-21T09:38:53;26.25;;;15.63;;
71395;SDS011;59888;55.814;37.132;2022-08-21T09:41:25;22.88;;;16.05;;
71395;SDS011;59888;55.814;37.132;2022-08-21T09:43:56;33.03;;;16.45;;
71395;SDS011;59888;55.814;37.132;2022-08-21T09:46:24;28.90;;;17.48;;
71395;SDS011;59888;55.814;37.132;2022-08-21T09:48:56;29.08;;;17.25;;
71395;SDS011;59888;55.814;37.132;2022-08-21T09:51:34;24.13;;;15.63;;
71395;SDS011;59888;55.814;37.132;2022-08-21T09:56:35;26.67;;;15.52;;
71395;SDS011;59888;55.814;37.132;2022-08-21T09:59:26;25.25;;;15.40;;
71395;SDS011;59888;55.814;37.132;2022-08-21T10:01:58;23.92;;;15.18;;
71395;SDS011;59888;55.814;37.132;2022-08-21T10:04:31;23.50;;;15.00;;
71395;SDS011;59888;55.814;37.132;2022-08-21T10:07:12;27.40;;;15.32;;
71395;SDS011;59888;55.814;37.132;2022-08-21T10:09:39;24.75;;;14.63;;
71395;SDS011;59888;55.814;37.132;2022-08-21T10:12:22;25.63;;;13.07;;
71395;SDS011;59888;55.814;37.132;2022-08-21T10:15:32;29.02;;;14.05;;
71395;SDS011;59888;55.814;37.132;2022-08-21T10:18:08;22.50;;;12.90;;
71395;SDS011;59888;55.814;37.132;2022-08-21T10:20:46;25.80;;;13.50;;
71395;SDS011;59888;55.814;37.132;2022-08-21T10:23:29;24.85;;;13.00;;
71395;SDS011;59888;55.814;37.132;2022-08-21T10:34:06;20.70;;;12.02;;
71395;SDS011;59888;55.814;37.132;2022-08-21T10:37:25;20.55;;;11.60;;
71395;SDS011;59888;55.814;37.132;2022-08-21T10:48:19;22.10;;;12.13;;
71395;SDS011;59888;55.814;37.132;2022-08-21T10:51:26;23.63;;;12.00;;
71395;SDS011;59888;55.814;37.132;2022-08-21T10:54:05;20.17;;;10.80;;
71395;SDS011;59888;55.814;37.132;2022-08-21T10:56:48;16.38;;;9.57;;
71395;SDS011;59888;55.814;37.132;2022-08-21T11:02:18;20.92;;;9.20;;
71395;SDS011;59888;55.814;37.132;2022-08-21T11:04:56;15.45;;;8.57;;
71395;SDS011;59888;55.814;37.132;2022-08-21T11:07:39;20.75;;;9.77;;
71395;SDS011;59888;55.814;37.132;2022-08-21T11:12:49;20.52;;;7.45;;
71395;SDS011;59888;55.814;37.132;2022-08-21T11:18:26;15.63;;;5.93;;
71395;SDS011;59888;55.814;37.132;2022-08-21T11:23:45;14.52;;;5.97;;
71395;SDS011;59888;55.814;37.132;2022-08-21T11:29:02;15.60;;;6.88;;
71395;SDS011;59888;55.814;37.132;2022-08-21T11:36:42;15.60;;;7.10;;
71395;SDS011;59888;55.814;37.132;2022-08-21T11:39:30;14.55;;;6.15;;
71395;SDS011;59888;55.814;37.132;2022-08-21T11:42:13;16.55;;;6.68;;
71395;SDS011;59888;55.814;37.132;2022-08-21T11:50:28;18.65;;;5.97;;
71395;SDS011;59888;55.814;37.132;2022-08-21T11:53:01;10.80;;;4.40;;
71395;SDS011;59888;55.814;37.132;2022-08-21T12:00:58;12.40;;;4.25;;
71395;SDS011;59888;55.814;37.132;2022-08-21T12:03:33;12.60;;;4.47;;
71395;SDS011;59888;55.814;37.132;2022-08-21T12:06:09;18.08;;;5.35;;
71395;SDS011;59888;55.814;37.132;2022-08-21T12:08:44;12.13;;;4.22;;
71395;SDS011;59888;55.814;37.132;2022-08-21T12:14:46;7.78;;;3.63;;
71395;SDS011;59888;55.814;37.132;2022-08-21T12:16:43;8.65;;;3.55;;
71395;SDS011;59888;55.814;37.132;2022-08-21T12:19:28;10.63;;;3.42;;
71395;SDS011;59888;55.814;37.132;2022-08-21T12:24:33;10.10;;;3.65;;
71395;SDS011;59888;55.814;37.132;2022-08-21T12:29:47;11.98;;;4.97;;
71395;SDS011;59888;55.814;37.132;2022-08-21T12:37:20;14.43;;;6.68;;
71395;SDS011;59888;55.814;37.132;2022-08-21T12:39:52;15.50;;;6.60;;
71395;SDS011;59888;55.814;37.132;2022-08-21T12:42:23;13.60;;;7.85;;
71395;SDS011;59888;55.814;37.132;2022-08-21T12:44:58;19.75;;;7.72;;
71395;SDS011;59888;55.814;37.132;2022-08-21T12:50:16;17.38;;;8.93;;
71395;SDS011;59888;55.814;37.132;2022-08-21T12:52:57;19.90;;;8.70;;
71395;SDS011;59888;55.814;37.132;2022-08-21T12:55:28;15.82;;;8.45;;
71395;SDS011;59888;55.814;37.132;2022-08-21T12:57:55;16.08;;;8.48;;
71395;SDS011;59888;55.814;37.132;2022-08-21T13:00:23;17.40;;;8.52;;
71395;SDS011;59888;55.814;37.132;2022-08-21T13:02:51;19.20;;;8.90;;
71395;SDS011;59888;55.814;37.132;2022-08-21T13:05:28;18.23;;;8.02;;
71395;SDS011;59888;55.814;37.132;2022-08-21T13:07:59;16.92;;;7.40;;
71395;SDS011;59888;55.814;37.132;2022-08-21T13:10:31;23.60;;;7.57;;
71395;SDS011;59888;55.814;37.132;2022-08-21T13:13:02;13.93;;;5.00;;
71395;SDS011;59888;55.814;37.132;2022-08-21T13:15:45;11.40;;;4.55;;
71395;SDS011;59888;55.814;37.132;2022-08-21T13:18:19;14.45;;;4.38;;
71395;SDS011;59888;55.814;37.132;2022-08-21T13:20:47;19.55;;;3.30;;
71395;SDS011;59888;55.814;37.132;2022-08-21T13:25:49;17.05;;;2.78;;
71395;SDS011;59888;55.814;37.132;2022-08-21T13:28:15;12.15;;;2.75;;
71395;SDS011;59888;55.814;37.132;2022-08-21T13:30:42;19.90;;;2.85;;
71395;SDS011;59888;55.814;37.132;2022-08-21T13:33:11;13.27;;;2.72;;
71395;SDS011;59888;55.814;37.132;2022-08-21T13:38:51;10.60;;;2.47;;
71395;SDS011;59888;55.814;37.132;2022-08-21T13:41:22;11.52;;;2.63;;
71395;SDS011;59888;55.814;37.132;2022-08-21T13:46:41;10.25;;;2.80;;
71395;SDS011;59888;55.814;37.132;2022-08-21T13:49:09;15.55;;;2.45;;
71395;SDS011;59888;55.814;37.132;2022-08-21T13:51:38;13.55;;;2.92;;
71395;SDS011;59888;55.814;37.132;2022-08-21T13:54:20;15.13;;;3.25;;
71395;SDS011;59888;55.814;37.132;2022-08-21T13:56:50;12.40;;;2.70;;
71395;SDS011;59888;55.814;37.132;2022-08-21T13:59:29;12.13;;;2.97;;
71395;SDS011;59888;55.814;37.132;2022-08-21T14:02:19;13.90;;;3.13;;
71395;SDS011;59888;55.814;37.132;2022-08-21T14:04:54;12.35;;;3.08;;
71395;SDS011;59888;55.814;37.132;2022-08-21T14:09:52;11.52;;;3.30;;
71395;SDS011;59888;55.814;37.132;2022-08-21T14:12:24;15.55;;;3.50;;
71395;SDS011;59888;55.814;37.132;2022-08-21T14:14:54;13.10;;;3.30;;
71395;SDS011;59888;55.814;37.132;2022-08-21T14:17:30;9.88;;;3.20;;
71395;SDS011;59888;55.814;37.132;2022-08-21T14:19:58;12.30;;;3.78;;
71395;SDS011;59888;55.814;37.132;2022-08-21T14:22:28;15.60;;;3.90;;
71395;SDS011;59888;55.814;37.132;2022-08-21T14:25:05;10.18;;;2.90;;
71395;SDS011;59888;55.814;37.132;2022-08-21T14:27:40;9.75;;;3.30;;
71395;SDS011;59888;55.814;37.132;2022-08-21T14:30:18;12.40;;;4.03;;
71395;SDS011;59888;55.814;37.132;2022-08-21T14:32:46;14.13;;;3.20;;
71395;SDS011;59888;55.814;37.132;2022-08-21T14:35:13;16.40;;;3.03;;
71395;SDS011;59888;55.814;37.132;2022-08-21T14:37:43;16.73;;;3.35;;
71395;SDS011;59888;55.814;37.132;2022-08-21T14:40:11;9.93;;;2.92;;
71395;SDS011;59888;55.814;37.132;2022-08-21T14:42:37;12.50;;;3.05;;
71395;SDS011;59888;55.814;37.132;2022-08-21T14:45:25;19.00;;;2.80;;
71395;SDS011;59888;55.814;37.132;2022-08-21T14:47:52;11.05;;;2.70;;
71395;SDS011;59888;55.814;37.132;2022-08-21T14:50:18;8.10;;;2.42;;
71395;SDS011;59888;55.814;37.132;2022-08-21T14:52:44;6.55;;;2.30;;
71395;SDS011;59888;55.814;37.132;2022-08-21T14:55:11;7.25;;;2.33;;
71395;SDS011;59888;55.814;37.132;2022-08-21T14:57:40;6.63;;;2.60;;
71395;SDS011;59888;55.814;37.132;2022-08-21T15:00:08;12.82;;;2.78;;
71395;SDS011;59888;55.814;37.132;2022-08-21T15:02:35;9.57;;;2.67;;
71395;SDS011;59888;55.814;37.132;2022-08-21T15:05:02;10.82;;;2.78;;
71395;SDS011;59888;55.814;37.132;2022-08-21T15:07:28;12.77;;;3.20;;
71395;SDS011;59888;55.814;37.132;2022-08-21T15:09:54;11.55;;;3.10;;
71395;SDS011;59888;55.814;37.132;2022-08-21T15:12:20;7.55;;;2.92;;
71395;SDS011;59888;55.814;37.132;2022-08-21T15:14:46;12.68;;;3.47;;
71395;SDS011;59888;55.814;37.132;2022-08-21T15:17:12;8.88;;;3.15;;
71395;SDS011;59888;55.814;37.132;2022-08-21T15:19:38;10.48;;;3.83;;
71395;SDS011;59888;55.814;37.132;2022-08-21T15:22:04;17.60;;;4.30;;
71395;SDS011;59888;55.814;37.132;2022-08-21T15:24:30;11.70;;;4.20;;
71395;SDS011;59888;55.814;37.132;2022-08-21T15:26:58;9.23;;;4.38;;
71395;SDS011;59888;55.814;37.132;2022-08-21T15:29:25;10.82;;;3.88;;
71395;SDS011;59888;55.814;37.132;2022-08-21T15:31:55;12.20;;;4.05;;
71395;SDS011;59888;55.814;37.132;2022-08-21T15:34:24;12.65;;;4.28;;
71395;SDS011;59888;55.814;37.132;2022-08-21T15:36:52;13.43;;;4.25;;
71395;SDS011;59888;55.814;37.132;2022-08-21T15:39:19;8.63;;;3.58;;
71395;SDS011;59888;55.814;37.132;2022-08-21T15:41:45;11.00;;;3.92;;
71395;SDS011;59888;55.814;37.132;2022-08-21T15:44:11;12.43;;;3.60;;
71395;SDS011;59888;55.814;37.132;2022-08-21T15:46:38;9.00;;;4.03;;
71395;SDS011;59888;55.814;37.132;2022-08-21T15:49:04;11.25;;;4.78;;
71395;SDS011;59888;55.814;37.132;2022-08-21T15:51:30;13.70;;;3.90;;
71395;SDS011;59888;55.814;37.132;2022-08-21T15:53:57;16.33;;;4.30;;
71395;SDS011;59888;55.814;37.132;2022-08-21T15:56:24;11.73;;;3.45;;
71395;SDS011;59888;55.814;37.132;2022-08-21T15:58:53;11.00;;;3.72;;
71395;SDS011;59888;55.814;37.132;2022-08-21T16:01:24;6.47;;;3.60;;
71395;SDS011;59888;55.814;37.132;2022-08-21T16:03:50;11.15;;;3.60;;